createdAt,value
2023-03-17T00:00:54.026Z,10.19
2023-03-17T00:01:53.967Z,10.16
2023-03-17T00:02:53.979Z,10.17
2023-03-17T00:03:53.947Z,10.12
2023-03-17T00:04:53.855Z,10.15
2023-03-17T00:05:53.833Z,10.22
2023-03-17T00:06:53.802Z,10.20
2023-03-17T00:07:53.754Z,10.17
2023-03-17T00:08:53.711Z,10.04
2023-03-17T00:09:53.680Z,10.22
2023-03-17T00:10:53.639Z,10.05
2023-03-17T00:11:53.609Z,10.15
2023-03-17T00:12:53.569Z,10.12
2023-03-17T00:13:53.528Z,10.16
2023-03-17T00:14:53.492Z,10.13
2023-03-17T00:15:53.506Z,10.13
2023-03-17T00:16:53.426Z,10.16
2023-03-17T00:17:53.383Z,10.07
2023-03-17T00:18:53.347Z,10.15
2023-03-17T00:19:53.328Z,10.07
2023-03-17T00:20:53.276Z,10.09
2023-03-17T00:21:53.242Z,10.10
2023-03-17T00:22:53.204Z,10.09
2023-03-17T00:23:53.166Z,10.13
2023-03-17T00:24:53.129Z,10.07
2023-03-17T00:25:53.105Z,10.05
2023-03-17T00:26:53.061Z,10.02
2023-03-17T00:27:53.049Z,10.04
2023-03-17T00:28:53.018Z,10.02
2023-03-17T00:29:52.960Z,10.01
2023-03-17T00:30:52.952Z,10.07
2023-03-17T00:31:52.873Z,10.05
2023-03-17T00:32:52.872Z,9.99
2023-03-17T00:33:52.813Z,10.02
2023-03-17T00:34:52.777Z,10.02
2023-03-17T00:35:52.789Z,10.02
2023-03-17T00:36:52.692Z,10.07
2023-03-17T00:37:52.651Z,10.09
2023-03-17T00:38:52.701Z,10.09
2023-03-17T00:39:52.593Z,10.13
2023-03-17T00:40:52.540Z,10.07
2023-03-17T00:41:52.500Z,10.07
2023-03-17T00:42:52.466Z,10.07
2023-03-17T00:43:52.429Z,10.02
2023-03-17T00:44:52.390Z,10.10
2023-03-17T00:45:52.353Z,10.05
2023-03-17T00:46:52.420Z,10.02
2023-03-17T00:47:52.282Z,10.13
2023-03-17T00:48:52.248Z,10.02
2023-03-17T00:49:52.211Z,10.05
2023-03-17T00:50:52.192Z,10.02
2023-03-17T00:51:52.149Z,10.12
2023-03-17T00:52:52.105Z,10.01
2023-03-17T00:53:52.067Z,9.99
2023-03-17T00:54:52.024Z,10.09
2023-03-17T00:55:51.989Z,10.10
2023-03-17T00:56:51.956Z,9.99
2023-03-17T00:57:51.917Z,10.01
2023-03-17T00:58:51.886Z,10.10
2023-03-17T00:59:51.842Z,10.04
2023-03-17T01:00:51.826Z,10.04
2023-03-17T01:01:51.818Z,10.05
2023-03-17T01:02:51.734Z,10.01
2023-03-17T01:03:51.698Z,10.12
2023-03-17T01:04:59.797Z,10.04
2023-03-17T01:05:51.626Z,10.05
2023-03-17T01:06:51.590Z,10.02
2023-03-17T01:07:51.565Z,10.04
2023-03-17T01:08:51.515Z,10.05
2023-03-17T01:09:51.479Z,9.98
2023-03-17T01:10:51.437Z,10.02
2023-03-17T01:11:51.405Z,10.04
2023-03-17T01:12:51.362Z,9.95
2023-03-17T01:13:51.332Z,9.92
2023-03-17T01:14:51.297Z,10.01
2023-03-17T01:15:51.263Z,10.04
2023-03-17T01:16:51.218Z,9.98
2023-03-17T01:17:51.198Z,9.94
2023-03-17T01:18:51.170Z,9.94
2023-03-17T01:19:51.111Z,9.95
2023-03-17T01:20:51.073Z,9.94
2023-03-17T01:21:51.076Z,9.94
2023-03-17T01:22:51.022Z,9.94
2023-03-17T01:23:50.959Z,9.92
2023-03-17T01:24:50.926Z,9.92
2023-03-17T01:25:50.906Z,9.92
2023-03-17T01:26:50.872Z,9.89
2023-03-17T01:27:50.820Z,9.89
2023-03-17T01:28:50.804Z,9.92
2023-03-17T01:29:50.742Z,9.76
2023-03-17T01:30:50.706Z,9.91
2023-03-17T01:31:50.692Z,9.86
2023-03-17T01:32:50.717Z,9.82
2023-03-17T01:33:50.605Z,9.83
2023-03-17T01:34:50.565Z,9.82
2023-03-17T01:35:50.559Z,9.84
2023-03-17T01:36:50.490Z,9.83
2023-03-17T01:37:50.450Z,9.83
2023-03-17T01:38:50.422Z,9.84
2023-03-17T01:39:50.389Z,9.84
2023-03-17T01:40:50.359Z,9.87
2023-03-17T01:41:50.319Z,9.87
2023-03-17T01:42:50.272Z,9.87
2023-03-17T01:43:50.228Z,9.84
2023-03-17T01:44:50.196Z,9.83
2023-03-17T01:45:50.223Z,9.89
2023-03-17T01:46:50.121Z,9.84
2023-03-17T01:47:50.085Z,9.83
2023-03-17T01:48:50.045Z,9.86
2023-03-17T01:49:50.008Z,9.89
2023-03-17T01:50:49.975Z,9.86
2023-03-17T01:51:49.936Z,9.84
2023-03-17T01:52:49.902Z,9.80
2023-03-17T01:53:49.873Z,9.79
2023-03-17T01:54:49.828Z,9.80
2023-03-17T01:55:49.797Z,9.74
2023-03-17T01:56:49.758Z,9.80
2023-03-17T01:57:49.713Z,9.79
2023-03-17T01:58:49.678Z,9.76
2023-03-17T01:59:49.652Z,9.69
2023-03-17T02:00:49.621Z,9.73
2023-03-17T02:01:49.585Z,9.68
2023-03-17T02:02:49.538Z,9.72
2023-03-17T02:03:49.555Z,9.77
2023-03-17T02:04:49.459Z,9.72
2023-03-17T02:05:49.453Z,9.72
2023-03-17T02:06:58.776Z,9.68
2023-03-17T02:07:49.351Z,9.68
2023-03-17T02:08:49.310Z,9.69
2023-03-17T02:09:49.290Z,9.68
2023-03-17T02:10:49.249Z,9.72
2023-03-17T02:11:49.202Z,9.66
2023-03-17T02:12:49.168Z,9.65
2023-03-17T02:13:49.127Z,9.72
2023-03-17T02:14:49.094Z,9.66
2023-03-17T02:15:49.062Z,9.58
2023-03-17T02:16:49.027Z,9.65
2023-03-17T02:17:48.977Z,9.62
2023-03-17T02:18:48.950Z,9.58
2023-03-17T02:19:48.911Z,9.55
2023-03-17T02:20:48.886Z,9.55
2023-03-17T02:21:48.834Z,9.64
2023-03-17T02:22:48.807Z,9.54
2023-03-17T02:23:48.757Z,9.59
2023-03-17T02:24:48.722Z,9.64
2023-03-17T02:25:48.687Z,9.61
2023-03-17T02:26:48.651Z,9.54
2023-03-17T02:27:48.623Z,9.55
2023-03-17T02:28:48.586Z,9.54
2023-03-17T02:29:48.542Z,9.47
2023-03-17T02:30:48.541Z,9.47
2023-03-17T02:31:48.462Z,9.40
2023-03-17T02:32:48.458Z,9.44
2023-03-17T02:33:48.388Z,9.61
2023-03-17T02:34:48.358Z,9.44
2023-03-17T02:35:48.339Z,9.44
2023-03-17T02:36:48.314Z,9.44
2023-03-17T02:37:48.252Z,9.51
2023-03-17T02:38:48.210Z,9.44
2023-03-17T02:39:48.168Z,9.40
2023-03-17T02:40:48.139Z,9.43
2023-03-17T02:41:48.098Z,9.48
2023-03-17T02:42:48.110Z,9.48
2023-03-17T02:43:48.030Z,9.47
2023-03-17T02:44:48.013Z,9.41
2023-03-17T02:45:47.970Z,9.39
2023-03-17T02:46:47.926Z,9.44
2023-03-17T02:47:47.888Z,9.26
2023-03-17T02:48:47.842Z,9.32
2023-03-17T02:49:47.810Z,9.39
2023-03-17T02:50:47.778Z,9.31
2023-03-17T02:51:47.757Z,9.29
2023-03-17T02:52:47.695Z,9.34
2023-03-17T02:53:47.690Z,9.31
2023-03-17T02:54:47.620Z,9.29
2023-03-17T02:55:47.583Z,9.34
2023-03-17T02:56:47.550Z,9.26
2023-03-17T02:57:47.508Z,9.29
2023-03-17T02:58:47.482Z,9.29
2023-03-17T02:59:47.436Z,9.25
2023-03-17T03:00:47.404Z,9.21
2023-03-17T03:01:47.386Z,9.22
2023-03-17T03:02:47.396Z,9.26
2023-03-17T03:03:47.290Z,9.25
2023-03-17T03:04:47.251Z,9.23
2023-03-17T03:05:47.214Z,9.25
2023-03-17T03:06:47.183Z,9.29
2023-03-17T03:07:47.147Z,9.25
2023-03-17T03:08:47.114Z,9.23
2023-03-17T03:09:47.066Z,9.22
2023-03-17T03:10:47.030Z,9.23
2023-03-17T03:11:46.992Z,9.19
2023-03-17T03:12:46.955Z,9.21
2023-03-17T03:13:46.919Z,9.16
2023-03-17T03:14:46.891Z,9.16
2023-03-17T03:15:46.891Z,9.19
2023-03-17T03:16:46.805Z,9.21
2023-03-17T03:17:46.775Z,9.16
2023-03-17T03:18:46.737Z,9.18
2023-03-17T03:19:46.698Z,9.11
2023-03-17T03:20:46.666Z,9.14
2023-03-17T03:21:46.618Z,9.02
2023-03-17T03:22:46.594Z,9.13
2023-03-17T03:23:46.546Z,9.11
2023-03-17T03:24:46.513Z,9.04
2023-03-17T03:25:46.470Z,9.04
2023-03-17T03:26:46.438Z,9.11
2023-03-17T03:27:46.409Z,9.03
2023-03-17T03:28:46.358Z,9.03
2023-03-17T03:29:46.337Z,9.08
2023-03-17T03:30:46.328Z,9.04
2023-03-17T03:31:46.246Z,9.02
2023-03-17T03:32:46.264Z,9.06
2023-03-17T03:33:46.187Z,9.10
2023-03-17T03:34:46.142Z,9.02
2023-03-17T03:35:46.124Z,9.03
2023-03-17T03:36:46.068Z,9.08
2023-03-17T03:37:46.053Z,9.04
2023-03-17T03:38:45.998Z,8.99
2023-03-17T03:39:45.954Z,9.02
2023-03-17T03:40:45.916Z,9.06
2023-03-17T03:41:45.877Z,8.99
2023-03-17T03:42:45.847Z,8.99
2023-03-17T03:43:45.806Z,8.97
2023-03-17T03:44:45.763Z,9.08
2023-03-17T03:45:45.738Z,8.92
2023-03-17T03:46:45.841Z,9.08
2023-03-17T03:47:45.662Z,8.91
2023-03-17T03:48:45.618Z,9.03
2023-03-17T03:49:45.582Z,8.94
2023-03-17T03:50:45.540Z,8.97
2023-03-17T03:51:45.512Z,8.94
2023-03-17T03:52:45.476Z,8.89
2023-03-17T03:53:45.443Z,8.92
2023-03-17T03:54:45.399Z,8.92
2023-03-17T03:55:45.350Z,9.00
2023-03-17T03:56:45.314Z,8.95
2023-03-17T03:57:45.279Z,8.95
2023-03-17T03:58:45.242Z,9.00
2023-03-17T03:59:45.209Z,8.97
2023-03-17T04:00:45.176Z,8.92
2023-03-17T04:01:45.132Z,9.04
2023-03-17T04:02:45.207Z,8.94
2023-03-17T04:03:45.053Z,8.97
2023-03-17T04:04:45.028Z,8.97
2023-03-17T04:05:44.983Z,8.95
2023-03-17T04:06:44.942Z,8.91
2023-03-17T04:07:44.911Z,8.91
2023-03-17T04:08:44.883Z,8.85
2023-03-17T04:09:44.830Z,8.95
2023-03-17T04:10:44.797Z,8.91
2023-03-17T04:11:44.759Z,8.94
2023-03-17T04:12:44.724Z,8.91
2023-03-17T04:13:44.680Z,8.87
2023-03-17T04:14:44.644Z,8.89
2023-03-17T04:15:44.608Z,8.85
2023-03-17T04:16:44.574Z,8.88
2023-03-17T04:17:44.535Z,8.92
2023-03-17T04:18:44.642Z,8.88
2023-03-17T04:19:44.459Z,8.95
2023-03-17T04:20:44.423Z,8.87
2023-03-17T04:21:44.410Z,8.92
2023-03-17T04:22:44.354Z,8.84
2023-03-17T04:23:44.320Z,8.89
2023-03-17T04:24:44.274Z,8.82
2023-03-17T04:25:44.233Z,8.82
2023-03-17T04:26:44.202Z,8.81
2023-03-17T04:27:44.170Z,8.87
2023-03-17T04:28:44.125Z,8.82
2023-03-17T04:29:44.084Z,8.88
2023-03-17T04:30:44.050Z,8.85
2023-03-17T04:31:44.092Z,8.81
2023-03-17T04:32:44.030Z,8.87
2023-03-17T04:33:43.940Z,8.81
2023-03-17T04:34:43.908Z,8.91
2023-03-17T04:35:43.920Z,8.87
2023-03-17T04:36:43.825Z,8.87
2023-03-17T04:37:43.787Z,8.87
2023-03-17T04:38:43.756Z,8.79
2023-03-17T04:39:43.717Z,8.89
2023-03-17T04:40:43.678Z,8.81
2023-03-17T04:41:43.650Z,8.82
2023-03-17T04:42:43.597Z,8.94
2023-03-17T04:43:43.577Z,8.84
2023-03-17T04:44:43.527Z,8.81
2023-03-17T04:45:43.527Z,8.85
2023-03-17T04:46:43.449Z,8.84
2023-03-17T04:47:43.413Z,8.85
2023-03-17T04:48:43.381Z,8.84
2023-03-17T04:49:43.336Z,8.88
2023-03-17T04:50:43.312Z,8.91
2023-03-17T04:51:43.276Z,8.84
2023-03-17T04:52:43.229Z,8.79
2023-03-17T04:53:43.188Z,8.84
2023-03-17T04:54:43.159Z,8.78
2023-03-17T04:55:43.119Z,8.78
2023-03-17T04:56:43.081Z,8.82
2023-03-17T04:57:43.043Z,8.87
2023-03-17T04:58:43.008Z,8.81
2023-03-17T04:59:42.976Z,8.70
2023-03-17T05:00:43.001Z,8.91
2023-03-17T05:01:42.894Z,8.87
2023-03-17T05:02:42.941Z,8.89
2023-03-17T05:03:42.816Z,8.79
2023-03-17T05:04:42.788Z,8.84
2023-03-17T05:05:42.753Z,8.79
2023-03-17T05:06:42.788Z,8.82
2023-03-17T05:07:42.672Z,8.87
2023-03-17T05:08:42.645Z,8.84
2023-03-17T05:09:42.624Z,8.76
2023-03-17T05:10:42.631Z,8.91
2023-03-17T05:11:42.526Z,8.87
2023-03-17T05:12:42.479Z,8.84
2023-03-17T05:13:42.448Z,8.84
2023-03-17T05:14:42.410Z,8.87
2023-03-17T05:15:42.374Z,8.84
2023-03-17T05:16:42.387Z,8.81
2023-03-17T05:17:42.296Z,8.87
2023-03-17T05:18:42.260Z,8.87
2023-03-17T05:19:42.223Z,8.84
2023-03-17T05:20:42.184Z,8.91
2023-03-17T05:21:42.142Z,8.91
2023-03-17T05:22:42.117Z,8.87
2023-03-17T05:23:42.072Z,8.87
2023-03-17T05:24:42.046Z,8.89
2023-03-17T05:25:41.998Z,8.91
2023-03-17T05:26:41.963Z,8.91
2023-03-17T05:27:41.927Z,8.95
2023-03-17T05:28:41.884Z,8.79
2023-03-17T05:29:41.846Z,8.81
2023-03-17T05:30:41.820Z,8.92
2023-03-17T05:31:41.775Z,8.89
2023-03-17T05:32:41.768Z,8.89
2023-03-17T05:33:41.708Z,8.92
2023-03-17T05:34:41.664Z,8.85
2023-03-17T05:35:41.662Z,8.99
2023-03-17T05:36:41.587Z,8.88
2023-03-17T05:37:41.551Z,8.92
2023-03-17T05:38:41.511Z,8.89
2023-03-17T05:39:41.476Z,8.89
2023-03-17T05:40:41.444Z,8.89
2023-03-17T05:41:41.398Z,8.95
2023-03-17T05:42:41.364Z,8.87
2023-03-17T05:43:41.365Z,8.91
2023-03-17T05:44:41.289Z,8.91
2023-03-17T05:45:41.330Z,8.95
2023-03-17T05:46:41.242Z,8.94
2023-03-17T05:47:41.191Z,8.87
2023-03-17T05:48:41.139Z,8.81
2023-03-17T05:49:41.103Z,8.91
2023-03-17T05:50:41.062Z,8.94
2023-03-17T05:51:41.028Z,8.87
2023-03-17T05:52:40.990Z,8.91
2023-03-17T05:53:40.971Z,8.85
2023-03-17T05:54:40.923Z,8.94
2023-03-17T05:55:40.912Z,8.91
2023-03-17T05:56:40.845Z,9.00
2023-03-17T05:57:40.806Z,8.91
2023-03-17T05:58:40.770Z,8.95
2023-03-17T05:59:40.733Z,8.99
2023-03-17T06:00:40.691Z,9.02
2023-03-17T06:01:40.656Z,9.02
2023-03-17T06:02:40.694Z,9.02
2023-03-17T06:03:40.608Z,8.91
2023-03-17T06:04:40.544Z,9.06
2023-03-17T06:05:40.512Z,9.04
2023-03-17T06:06:40.479Z,9.08
2023-03-17T06:07:51.742Z,8.99
2023-03-17T06:08:40.404Z,8.99
2023-03-17T06:09:40.357Z,9.00
2023-03-17T06:10:40.334Z,9.03
2023-03-17T06:11:40.285Z,9.02
2023-03-17T06:12:40.247Z,9.06
2023-03-17T06:13:40.210Z,9.08
2023-03-17T06:14:40.171Z,9.03
2023-03-17T06:15:40.183Z,9.04
2023-03-17T06:16:40.107Z,9.14
2023-03-17T06:17:40.064Z,9.16
2023-03-17T06:18:40.031Z,9.18
2023-03-17T06:19:40.004Z,9.14
2023-03-17T06:20:39.956Z,9.18
2023-03-17T06:21:39.911Z,9.21
2023-03-17T06:22:51.698Z,9.22
2023-03-17T06:23:39.840Z,9.26
2023-03-17T06:24:39.808Z,9.25
2023-03-17T06:25:39.779Z,9.25
2023-03-17T06:26:39.739Z,9.28
2023-03-17T06:27:39.690Z,9.25
2023-03-17T06:28:39.652Z,9.25
2023-03-17T06:29:39.620Z,9.23
2023-03-17T06:30:40.852Z,9.28
2023-03-17T06:31:39.576Z,9.32
2023-03-17T06:32:39.534Z,9.34
2023-03-17T06:33:39.464Z,9.32
2023-03-17T06:34:39.426Z,9.43
2023-03-17T06:35:39.418Z,9.44
2023-03-17T06:36:39.358Z,9.48
2023-03-17T06:37:39.320Z,9.46
2023-03-17T06:38:39.293Z,9.44
2023-03-17T06:39:39.246Z,9.41
2023-03-17T06:40:39.211Z,9.40
2023-03-17T06:41:39.181Z,9.43
2023-03-17T06:42:39.134Z,9.44
2023-03-17T06:43:39.097Z,9.44
2023-03-17T06:44:39.063Z,9.48
2023-03-17T06:45:39.024Z,9.44
2023-03-17T06:46:39.027Z,9.47
2023-03-17T06:47:38.962Z,9.59
2023-03-17T06:48:38.908Z,9.61
2023-03-17T06:49:38.877Z,9.61
2023-03-17T06:50:38.846Z,9.65
2023-03-17T06:51:38.801Z,9.62
2023-03-17T06:52:38.769Z,9.65
2023-03-17T06:53:38.729Z,9.68
2023-03-17T06:54:38.707Z,9.66
2023-03-17T06:55:38.660Z,9.66
2023-03-17T06:56:38.613Z,9.73
2023-03-17T06:57:38.588Z,9.79
2023-03-17T06:58:38.545Z,9.79
2023-03-17T06:59:38.505Z,9.82
2023-03-17T07:00:38.471Z,9.76
2023-03-17T07:01:38.513Z,9.86
2023-03-17T07:02:38.396Z,9.83
2023-03-17T07:03:38.619Z,9.87
2023-03-17T07:04:38.398Z,9.92
2023-03-17T07:05:38.284Z,9.97
2023-03-17T07:06:38.246Z,10.02
2023-03-17T07:07:38.211Z,9.99
2023-03-17T07:08:38.172Z,9.98
2023-03-17T07:09:38.138Z,10.09
2023-03-17T07:10:38.114Z,9.92
2023-03-17T07:11:38.066Z,10.02
2023-03-17T07:12:38.020Z,10.04
2023-03-17T07:13:37.998Z,10.09
2023-03-17T07:14:37.954Z,10.07
2023-03-17T07:15:37.915Z,10.12
2023-03-17T07:16:37.976Z,10.13
2023-03-17T07:17:37.840Z,10.25
2023-03-17T07:18:37.805Z,10.19
2023-03-17T07:19:37.771Z,10.25
2023-03-17T07:20:37.759Z,10.25
2023-03-17T07:21:37.710Z,10.34
2023-03-17T07:22:37.712Z,10.30
2023-03-17T07:23:37.642Z,10.23
2023-03-17T07:24:37.599Z,10.23
2023-03-17T07:25:37.556Z,10.31
2023-03-17T07:26:37.538Z,10.34
2023-03-17T07:27:37.496Z,10.28
2023-03-17T07:28:37.480Z,10.35
2023-03-17T07:29:37.439Z,10.44
2023-03-17T07:30:37.384Z,10.44
2023-03-17T07:31:37.414Z,10.41
2023-03-17T07:32:37.333Z,10.49
2023-03-17T07:33:37.266Z,10.59
2023-03-17T07:34:37.240Z,10.57
2023-03-17T07:35:37.243Z,10.61
2023-03-17T07:36:37.149Z,10.63
2023-03-17T07:37:37.118Z,10.69
2023-03-17T07:38:37.082Z,10.68
2023-03-17T07:39:37.034Z,10.67
2023-03-17T07:40:37.003Z,10.72
2023-03-17T07:41:36.966Z,10.78
2023-03-17T07:42:36.937Z,10.89
2023-03-17T07:43:36.908Z,10.84
2023-03-17T07:44:36.854Z,10.94
2023-03-17T07:45:36.819Z,10.94
2023-03-17T07:46:36.811Z,11.00
2023-03-17T07:47:36.768Z,11.05
2023-03-17T07:48:36.710Z,11.05
2023-03-17T07:49:41.797Z,11.10
2023-03-17T07:50:36.640Z,11.18
2023-03-17T07:51:36.605Z,11.25
2023-03-17T07:52:36.579Z,11.29
2023-03-17T07:53:36.529Z,11.29
2023-03-17T07:54:36.493Z,11.36
2023-03-17T07:55:36.453Z,11.27
2023-03-17T07:56:36.420Z,11.37
2023-03-17T07:57:36.408Z,11.41
2023-03-17T07:58:36.354Z,11.45
2023-03-17T07:59:36.328Z,11.43
2023-03-17T08:00:36.590Z,11.52
2023-03-17T08:01:36.309Z,11.54
2023-03-17T08:02:36.338Z,11.54
2023-03-17T08:03:36.228Z,11.52
2023-03-17T08:04:36.163Z,11.57
2023-03-17T08:05:36.115Z,11.66
2023-03-17T08:06:36.075Z,11.63
2023-03-17T08:07:36.071Z,11.63
2023-03-17T08:08:36.022Z,11.72
2023-03-17T08:09:35.965Z,11.66
2023-03-17T08:10:36.221Z,11.75
2023-03-17T08:11:35.893Z,11.77
2023-03-17T08:12:35.863Z,11.86
2023-03-17T08:13:35.846Z,11.91
2023-03-17T08:14:35.782Z,11.97
2023-03-17T08:15:35.780Z,12.02
2023-03-17T08:16:35.730Z,12.00
2023-03-17T08:17:35.674Z,12.03
2023-03-17T08:18:35.637Z,12.10
2023-03-17T08:19:35.597Z,12.13
2023-03-17T08:20:35.721Z,12.21
2023-03-17T08:21:35.583Z,12.25
2023-03-17T08:22:35.520Z,12.31
2023-03-17T08:23:35.471Z,12.35
2023-03-17T08:24:35.478Z,12.47
2023-03-17T08:25:35.408Z,12.50
2023-03-17T08:26:35.363Z,12.50
2023-03-17T08:27:35.342Z,12.64
2023-03-17T08:28:35.283Z,12.64
2023-03-17T08:29:35.298Z,12.65
2023-03-17T08:30:35.792Z,12.65
2023-03-17T08:31:35.245Z,12.72
2023-03-17T08:32:35.187Z,12.79
2023-03-17T08:33:35.120Z,12.85
2023-03-17T08:34:35.070Z,12.95
2023-03-17T08:35:35.190Z,12.93
2023-03-17T08:36:35.011Z,13.04
2023-03-17T08:37:34.977Z,13.04
2023-03-17T08:38:34.967Z,13.13
2023-03-17T08:39:34.920Z,13.15
2023-03-17T08:40:34.992Z,13.15
2023-03-17T08:41:34.833Z,13.22
2023-03-17T08:42:34.794Z,13.25
2023-03-17T08:43:34.758Z,13.28
2023-03-17T08:44:34.722Z,13.28
2023-03-17T08:45:34.702Z,13.37
2023-03-17T08:46:34.718Z,13.33
2023-03-17T08:47:34.627Z,13.31
2023-03-17T08:48:34.585Z,13.28
2023-03-17T08:49:34.583Z,13.49
2023-03-17T08:50:34.826Z,13.47
2023-03-17T08:51:34.492Z,13.47
2023-03-17T08:52:34.465Z,13.52
2023-03-17T08:53:34.412Z,13.62
2023-03-17T08:54:34.372Z,13.54
2023-03-17T08:55:34.353Z,13.57
2023-03-17T08:56:34.311Z,13.62
2023-03-17T08:57:34.275Z,13.63
2023-03-17T08:58:34.239Z,13.71
2023-03-17T08:59:34.221Z,13.63
2023-03-17T09:00:34.173Z,13.68
2023-03-17T09:01:34.198Z,13.68
2023-03-17T09:02:34.147Z,13.63
2023-03-17T09:03:34.108Z,13.78
2023-03-17T09:04:34.049Z,13.74
2023-03-17T09:05:36.236Z,13.77
2023-03-17T09:06:33.977Z,13.79
2023-03-17T09:07:34.119Z,13.75
2023-03-17T09:08:33.899Z,13.83
2023-03-17T09:09:33.870Z,13.89
2023-03-17T09:10:34.155Z,13.87
2023-03-17T09:11:33.804Z,14.03
2023-03-17T09:12:34.282Z,13.96
2023-03-17T09:13:33.727Z,13.99
2023-03-17T09:14:42.841Z,14.10
2023-03-17T09:15:33.916Z,14.15
2023-03-17T09:16:33.691Z,14.15
2023-03-17T09:17:33.608Z,14.23
2023-03-17T09:18:33.574Z,14.25
2023-03-17T09:19:33.529Z,14.25
2023-03-17T09:20:33.931Z,14.30
2023-03-17T09:21:33.459Z,14.37
2023-03-17T09:22:33.440Z,14.36
2023-03-17T09:23:33.389Z,14.43
2023-03-17T09:24:33.356Z,14.51
2023-03-17T09:25:33.315Z,14.53
2023-03-17T09:26:33.297Z,14.58
2023-03-17T09:27:33.255Z,14.65
2023-03-17T09:28:33.222Z,14.68
2023-03-17T09:29:33.181Z,14.72
2023-03-17T09:30:33.535Z,14.73
2023-03-17T09:31:33.219Z,14.72
2023-03-17T09:32:33.114Z,14.85
2023-03-17T09:33:33.061Z,14.79
2023-03-17T09:34:33.023Z,14.86
2023-03-17T09:35:33.051Z,14.84
2023-03-17T09:36:32.962Z,14.86
2023-03-17T09:37:32.919Z,14.94
2023-03-17T09:38:32.890Z,14.96
2023-03-17T09:39:32.845Z,14.96
2023-03-17T09:40:33.105Z,15.10
2023-03-17T09:41:32.780Z,14.99
2023-03-17T09:42:32.744Z,15.02
2023-03-17T09:43:32.739Z,15.14
2023-03-17T09:44:32.685Z,15.17
2023-03-17T09:45:32.745Z,15.17
2023-03-17T09:46:32.705Z,15.24
2023-03-17T09:47:32.594Z,15.25
2023-03-17T09:48:32.547Z,15.39
2023-03-17T09:49:32.515Z,15.46
2023-03-17T09:50:32.995Z,15.49
2023-03-17T09:51:32.465Z,15.58
2023-03-17T09:52:32.414Z,15.62
2023-03-17T09:53:32.378Z,15.62
2023-03-17T09:54:32.352Z,15.67
2023-03-17T09:55:32.658Z,15.62
2023-03-17T09:56:32.280Z,15.80
2023-03-17T09:57:32.250Z,15.84
2023-03-17T09:58:32.215Z,15.94
2023-03-17T09:59:32.183Z,15.92
2023-03-17T10:00:32.148Z,15.86
2023-03-17T10:01:32.183Z,15.97
2023-03-17T10:02:32.086Z,16.04
2023-03-17T10:03:32.052Z,16.13
2023-03-17T10:04:32.019Z,16.16
2023-03-17T10:05:32.439Z,16.13
2023-03-17T10:06:31.956Z,16.10
2023-03-17T10:07:31.926Z,16.28
2023-03-17T10:08:32.322Z,16.17
2023-03-17T10:09:31.855Z,16.31
2023-03-17T10:10:32.208Z,16.33
2023-03-17T10:11:31.814Z,16.36
2023-03-17T10:12:31.752Z,16.38
2023-03-17T10:13:31.720Z,16.41
2023-03-17T10:14:31.691Z,16.42
2023-03-17T10:15:31.810Z,16.43
2023-03-17T10:16:31.677Z,16.51
2023-03-17T10:17:31.598Z,16.57
2023-03-17T10:18:31.614Z,16.51
2023-03-17T10:19:31.562Z,16.61
2023-03-17T10:20:31.499Z,16.66
2023-03-17T10:21:31.465Z,16.68
2023-03-17T10:22:31.447Z,16.74
2023-03-17T10:23:31.401Z,16.68
2023-03-17T10:24:31.365Z,16.76
2023-03-17T10:25:31.714Z,16.78
2023-03-17T10:26:31.317Z,16.90
2023-03-17T10:27:31.275Z,16.99
2023-03-17T10:28:31.242Z,16.94
2023-03-17T10:29:31.210Z,16.97
2023-03-17T10:30:31.398Z,16.99
2023-03-17T10:31:31.221Z,17.09
2023-03-17T10:32:31.187Z,17.11
2023-03-17T10:33:31.085Z,17.23
2023-03-17T10:34:31.073Z,17.23
2023-03-17T10:35:31.271Z,17.39
2023-03-17T10:36:30.986Z,17.51
2023-03-17T10:37:30.956Z,17.46
2023-03-17T10:38:30.930Z,17.65
2023-03-17T10:39:32.822Z,17.76
2023-03-17T10:40:31.173Z,17.71
2023-03-17T10:41:30.839Z,17.74
2023-03-17T10:42:30.814Z,17.90
2023-03-17T10:43:30.775Z,17.92
2023-03-17T10:44:30.738Z,18.10
2023-03-17T10:45:30.710Z,18.10
2023-03-17T10:46:30.733Z,18.13
2023-03-17T10:47:30.661Z,18.20
2023-03-17T10:48:30.620Z,18.25
2023-03-17T10:49:30.591Z,18.38
2023-03-17T10:50:31.039Z,18.45
2023-03-17T10:51:30.541Z,18.63
2023-03-17T10:52:30.530Z,18.59
2023-03-17T10:53:30.475Z,18.75
2023-03-17T10:54:30.446Z,18.88
2023-03-17T10:55:30.411Z,19.08
2023-03-17T10:56:30.380Z,19.18
2023-03-17T10:57:30.359Z,19.30
2023-03-17T10:58:30.340Z,19.41
2023-03-17T11:00:30.613Z,19.59
2023-03-17T11:01:30.350Z,19.66
2023-03-17T11:02:30.229Z,19.71
2023-03-17T11:03:30.254Z,19.89
2023-03-17T11:04:30.159Z,19.95
2023-03-17T11:05:30.134Z,19.91
2023-03-17T11:06:30.106Z,19.85
2023-03-17T11:07:30.105Z,19.88
2023-03-17T11:08:30.039Z,19.99
2023-03-17T11:09:30.011Z,19.99
2023-03-17T11:10:30.387Z,20.03
2023-03-17T11:11:29.961Z,20.07
2023-03-17T11:12:29.924Z,20.10
2023-03-17T11:13:29.951Z,20.04
2023-03-17T11:14:29.881Z,20.13
2023-03-17T11:15:29.858Z,20.16
2023-03-17T11:16:29.899Z,20.09
2023-03-17T11:17:29.784Z,20.19
2023-03-17T11:18:31.352Z,20.07
2023-03-17T11:19:29.733Z,20.18
2023-03-17T11:20:30.021Z,20.34
2023-03-17T11:21:29.674Z,20.48
2023-03-17T11:22:29.641Z,20.59
2023-03-17T11:23:29.622Z,20.60
2023-03-17T11:24:30.851Z,20.74
2023-03-17T11:25:29.560Z,20.70
2023-03-17T11:26:29.532Z,20.74
2023-03-17T11:27:29.514Z,20.72
2023-03-17T11:28:29.481Z,20.66
2023-03-17T11:29:29.448Z,20.77
2023-03-17T11:30:29.808Z,20.82
2023-03-17T11:31:29.430Z,20.77
2023-03-17T11:32:29.441Z,20.66
2023-03-17T11:33:29.328Z,20.67
2023-03-17T11:34:29.296Z,20.74
2023-03-17T11:35:29.281Z,20.84
2023-03-17T11:36:29.246Z,20.90
2023-03-17T11:37:29.219Z,20.99
2023-03-17T11:38:29.202Z,20.99
2023-03-17T11:39:29.152Z,21.15
2023-03-17T11:40:29.388Z,21.11
2023-03-17T11:41:29.107Z,21.17
2023-03-17T11:42:29.115Z,21.21
2023-03-17T11:43:29.038Z,21.27
2023-03-17T11:44:29.015Z,21.35
2023-03-17T11:45:28.984Z,21.39
2023-03-17T11:46:29.003Z,21.48
2023-03-17T11:47:28.932Z,21.48
2023-03-17T11:48:28.910Z,21.37
2023-03-17T11:49:28.872Z,21.52
2023-03-17T11:50:28.892Z,21.55
2023-03-17T11:51:28.823Z,21.46
2023-03-17T11:52:28.794Z,21.57
2023-03-17T11:53:28.754Z,21.61
2023-03-17T11:54:28.727Z,21.60
2023-03-17T11:55:28.702Z,21.62
2023-03-17T11:56:28.668Z,21.58
2023-03-17T11:57:28.649Z,21.61
2023-03-17T11:58:28.621Z,21.75
2023-03-17T11:59:28.595Z,21.67
2023-03-17T12:00:28.600Z,21.72
2023-03-17T12:01:28.548Z,21.72
2023-03-17T12:02:28.516Z,21.72
2023-03-17T12:03:28.543Z,21.92
2023-03-17T12:04:28.453Z,21.96
2023-03-17T12:05:28.412Z,21.92
2023-03-17T12:06:28.384Z,22.00
2023-03-17T12:07:28.354Z,22.07
2023-03-17T12:08:28.322Z,22.04
2023-03-17T12:09:28.312Z,22.20
2023-03-17T12:10:28.269Z,22.13
2023-03-17T12:11:28.252Z,22.15
2023-03-17T12:12:28.209Z,22.17
2023-03-17T12:13:28.187Z,22.28
2023-03-17T12:14:28.170Z,22.13
2023-03-17T12:15:28.196Z,22.17
2023-03-17T12:16:28.098Z,22.10
2023-03-17T12:17:29.701Z,22.20
2023-03-17T12:18:28.059Z,22.23
2023-03-17T12:19:28.022Z,22.11
2023-03-17T12:20:27.996Z,22.15
2023-03-17T12:21:27.966Z,22.07
2023-03-17T12:22:27.924Z,22.02
2023-03-17T12:23:27.899Z,22.02
2023-03-17T12:24:27.877Z,22.06
2023-03-17T12:25:27.849Z,22.15
2023-03-17T12:26:27.819Z,22.25
2023-03-17T12:27:27.787Z,22.10
2023-03-17T12:28:27.758Z,22.08
2023-03-17T12:29:27.727Z,22.04
2023-03-17T12:30:27.702Z,22.07
2023-03-17T12:31:27.839Z,22.14
2023-03-17T12:32:27.645Z,22.13
2023-03-17T12:33:27.629Z,22.18
2023-03-17T12:34:27.592Z,22.28
2023-03-17T12:35:27.565Z,22.33
2023-03-17T12:36:27.532Z,22.48
2023-03-17T12:37:27.522Z,22.44
2023-03-17T12:38:27.483Z,22.45
2023-03-17T12:39:27.514Z,22.41
2023-03-17T12:40:27.646Z,22.39
2023-03-17T12:41:27.390Z,22.53
2023-03-17T12:42:27.362Z,22.55
2023-03-17T12:43:27.340Z,22.62
2023-03-17T12:44:27.308Z,22.68
2023-03-17T12:45:27.280Z,22.78
2023-03-17T12:46:27.388Z,22.78
2023-03-17T12:47:27.240Z,22.85
2023-03-17T12:48:27.193Z,22.88
2023-03-17T12:49:27.176Z,22.87
2023-03-17T12:50:27.146Z,22.75
2023-03-17T12:51:27.115Z,22.78
2023-03-17T12:52:27.080Z,22.73
2023-03-17T12:53:27.081Z,22.85
2023-03-17T12:54:27.039Z,22.90
2023-03-17T12:55:27.000Z,22.99
2023-03-17T12:56:26.982Z,22.98
2023-03-17T12:57:26.969Z,23.12
2023-03-17T12:58:26.923Z,23.10
2023-03-17T12:59:26.890Z,23.21
2023-03-17T13:00:26.857Z,23.27
2023-03-17T13:01:26.922Z,23.39
2023-03-17T13:02:26.864Z,23.36
2023-03-17T13:03:26.825Z,23.39
2023-03-17T13:04:27.298Z,23.47
2023-03-17T13:05:26.726Z,23.56